createdAt,value
2019-05-22T00:01:10.623Z,13.06
2019-05-22T00:03:43.783Z,13.05
2019-05-22T00:06:14.697Z,13.03
2019-05-22T00:08:43.564Z,13.01
2019-05-22T00:11:13.654Z,13.02
2019-05-22T00:13:42.148Z,13.01
2019-05-22T00:16:12.402Z,12.97
2019-05-22T00:18:41.866Z,12.98
2019-05-22T00:21:12.694Z,12.98
2019-05-22T00:23:41.162Z,12.98
2019-05-22T00:26:11.057Z,12.98
2019-05-22T00:28:40.501Z,12.97
2019-05-22T00:31:09.260Z,12.97
2019-05-22T00:33:39.669Z,12.95
2019-05-22T00:36:10.559Z,12.96
2019-05-22T00:38:40.006Z,12.93
2019-05-22T00:41:10.404Z,12.91
2019-05-22T00:43:41.112Z,12.91
2019-05-22T00:46:11.206Z,12.90
2019-05-22T00:48:41.652Z,12.87
2019-05-22T00:51:28.075Z,12.88
2019-05-22T00:54:09.789Z,12.89
2019-05-22T00:56:55.287Z,12.89
2019-05-22T00:59:27.061Z,12.86
2019-05-22T01:02:12.139Z,12.84
2019-05-22T01:04:43.271Z,12.83
2019-05-22T01:07:39.662Z,12.81
2019-05-22T01:10:11.699Z,12.79
2019-05-22T01:12:42.743Z,12.78
2019-05-22T01:15:14.307Z,12.78
2019-05-22T01:17:43.010Z,12.77
2019-05-22T01:20:16.619Z,12.73
2019-05-22T01:22:47.447Z,12.70
2019-05-22T01:25:20.684Z,12.70
2019-05-22T01:27:49.122Z,12.66
2019-05-22T01:30:23.352Z,12.63
2019-05-22T01:32:53.756Z,12.59
2019-05-22T01:35:23.784Z,12.56
2019-05-22T01:37:52.849Z,12.54
2019-05-22T01:40:36.453Z,12.52
2019-05-22T01:43:20.432Z,12.52
2019-05-22T01:45:54.948Z,12.49
2019-05-22T01:48:30.945Z,12.48
2019-05-22T01:51:00.977Z,12.44
2019-05-22T01:53:34.053Z,12.43
2019-05-22T01:56:04.635Z,12.42
2019-05-22T01:58:34.294Z,12.38
2019-05-22T02:01:04.709Z,12.34
2019-05-22T02:03:34.123Z,12.32
2019-05-22T02:06:05.525Z,12.31
2019-05-22T02:08:37.744Z,12.30
2019-05-22T02:11:08.332Z,12.29
2019-05-22T02:13:43.857Z,12.27
2019-05-22T02:16:12.327Z,12.25
2019-05-22T02:18:43.480Z,12.23
2019-05-22T02:21:12.385Z,12.23
2019-05-22T02:23:42.817Z,12.19
2019-05-22T02:26:13.354Z,12.14
2019-05-22T02:28:41.825Z,12.14
2019-05-22T02:31:13.943Z,12.10
2019-05-22T02:34:02.578Z,12.08
2019-05-22T02:36:33.437Z,12.07
2019-05-22T02:39:03.477Z,12.07
2019-05-22T02:41:42.003Z,12.06
2019-05-22T02:44:10.674Z,12.01
2019-05-22T02:46:39.413Z,12.01
2019-05-22T02:49:10.412Z,11.97
2019-05-22T02:51:39.984Z,11.95
2019-05-22T02:54:10.059Z,11.93
2019-05-22T02:56:38.709Z,11.93
2019-05-22T02:59:08.702Z,11.92
2019-05-22T03:01:37.814Z,11.95
2019-05-22T03:04:07.931Z,11.83
2019-05-22T03:06:36.706Z,11.98
2019-05-22T03:09:18.132Z,11.97
2019-05-22T03:11:52.657Z,11.94
2019-05-22T03:14:24.145Z,11.94
2019-05-22T03:16:59.928Z,11.93
2019-05-22T03:19:41.244Z,11.92
2019-05-22T03:22:26.240Z,11.89
2019-05-22T03:24:56.661Z,11.88
2019-05-22T03:27:46.905Z,11.86
2019-05-22T03:30:25.111Z,11.85
2019-05-22T03:32:55.510Z,11.85
2019-05-22T03:35:26.136Z,11.86
2019-05-22T03:37:56.913Z,11.84
2019-05-22T03:40:32.023Z,11.85
2019-05-22T03:43:04.009Z,11.68
2019-05-22T03:45:32.699Z,11.81
2019-05-22T03:48:03.718Z,11.81
2019-05-22T03:50:32.521Z,11.78
2019-05-22T03:53:05.612Z,11.76
2019-05-22T03:55:34.468Z,11.74
2019-05-22T03:58:02.862Z,11.75
2019-05-22T04:00:32.376Z,11.77
2019-05-22T04:03:02.516Z,11.79
2019-05-22T04:05:31.421Z,11.78
2019-05-22T04:08:03.272Z,11.77
2019-05-22T04:10:34.784Z,11.76
2019-05-22T04:13:04.833Z,11.74
2019-05-22T04:15:34.517Z,11.74
2019-05-22T04:18:12.959Z,11.75
2019-05-22T04:20:41.865Z,11.75
2019-05-22T04:23:10.771Z,11.72
2019-05-22T04:25:39.499Z,11.71
2019-05-22T04:28:08.064Z,11.69
2019-05-22T04:30:36.681Z,11.70
2019-05-22T04:33:05.126Z,11.71
2019-05-22T04:35:34.785Z,11.72
2019-05-22T04:38:03.732Z,11.72
2019-05-22T04:40:42.179Z,11.72
2019-05-22T04:43:12.107Z,11.70
2019-05-22T04:45:40.859Z,11.69
2019-05-22T04:48:10.201Z,11.67
2019-05-22T04:50:38.675Z,11.68
2019-05-22T04:53:07.064Z,11.66
2019-05-22T04:55:35.795Z,11.66
2019-05-22T04:58:06.173Z,11.68
2019-05-22T05:00:35.597Z,11.69
2019-05-22T05:03:05.319Z,11.67
2019-05-22T05:05:53.694Z,11.67
2019-05-22T05:08:22.895Z,11.67
2019-05-22T05:10:53.066Z,11.66
2019-05-22T05:13:21.659Z,11.67
2019-05-22T05:15:51.384Z,11.66
2019-05-22T05:18:19.750Z,11.64
2019-05-22T05:20:48.213Z,11.61
2019-05-22T05:23:16.794Z,11.57
2019-05-22T05:25:45.196Z,11.55
2019-05-22T05:28:15.203Z,11.51
2019-05-22T05:30:43.880Z,11.47
2019-05-22T05:33:12.740Z,11.45
2019-05-22T05:35:41.600Z,11.46
2019-05-22T05:38:11.818Z,11.46
2019-05-22T05:40:42.643Z,11.47
2019-05-22T05:43:12.496Z,11.48
2019-05-22T05:45:43.034Z,11.47
2019-05-22T05:48:14.012Z,11.46
2019-05-22T05:51:02.058Z,11.44
2019-05-22T05:53:33.770Z,11.44
2019-05-22T05:56:14.138Z,11.44
2019-05-22T05:58:43.376Z,11.42
2019-05-22T06:01:19.030Z,11.26
2019-05-22T06:03:47.962Z,11.39
2019-05-22T06:06:25.956Z,11.39
2019-05-22T06:08:56.429Z,11.39
2019-05-22T06:11:39.912Z,11.41
2019-05-22T06:14:10.049Z,11.42
2019-05-22T06:16:57.330Z,11.50
2019-05-22T06:19:28.351Z,11.49
2019-05-22T06:21:58.356Z,11.48
2019-05-22T06:24:38.493Z,11.48
2019-05-22T06:27:15.669Z,11.46
2019-05-22T06:29:50.175Z,11.44
2019-05-22T06:32:57.509Z,11.45
2019-05-22T06:35:31.688Z,11.46
2019-05-22T06:38:27.892Z,11.46
2019-05-22T06:40:56.793Z,11.46
2019-05-22T06:43:30.122Z,11.45
2019-05-22T06:45:58.752Z,11.49
2019-05-22T06:48:27.440Z,11.47
2019-05-22T06:50:56.901Z,11.52
2019-05-22T06:53:25.743Z,11.49
2019-05-22T06:55:54.198Z,11.50
2019-05-22T06:58:22.899Z,11.42
2019-05-22T07:00:51.439Z,11.33
2019-05-22T07:03:20.820Z,11.48
2019-05-22T07:05:50.160Z,11.47
2019-05-22T07:08:19.705Z,11.47
2019-05-22T07:10:48.809Z,11.47
2019-05-22T07:13:18.187Z,11.47
2019-05-22T07:15:50.152Z,11.47
2019-05-22T07:18:19.985Z,11.52
2019-05-22T07:20:50.288Z,11.57
2019-05-22T07:23:21.295Z,11.61
2019-05-22T07:25:52.238Z,11.58
2019-05-22T07:28:20.665Z,11.56
2019-05-22T07:30:50.600Z,11.56
2019-05-22T07:33:20.936Z,11.56
2019-05-22T07:36:08.410Z,11.58
2019-05-22T07:38:20.928Z,11.59
2019-05-22T07:40:51.610Z,11.59
2019-05-22T07:43:22.133Z,11.64
2019-05-22T07:45:53.565Z,11.65
2019-05-22T07:48:23.448Z,11.63
2019-05-22T07:50:54.128Z,11.61
2019-05-22T07:53:24.854Z,11.63
2019-05-22T07:55:55.077Z,11.63
2019-05-22T07:58:24.017Z,11.61
2019-05-22T08:00:54.224Z,11.60
2019-05-22T08:03:24.071Z,11.64
2019-05-22T08:05:55.274Z,11.64
2019-05-22T08:08:26.478Z,11.64
2019-05-22T08:10:56.700Z,11.68
2019-05-22T08:13:26.793Z,11.70
2019-05-22T08:15:55.732Z,11.70
2019-05-22T08:18:26.206Z,11.73
2019-05-22T08:20:54.840Z,11.75
2019-05-22T08:23:24.074Z,11.73
2019-05-22T08:25:52.705Z,11.73
2019-05-22T08:28:22.612Z,11.72
2019-05-22T08:30:52.448Z,11.72
2019-05-22T08:33:22.278Z,11.76
2019-05-22T08:35:51.226Z,11.77
2019-05-22T08:38:23.641Z,11.73
2019-05-22T08:40:52.801Z,11.70
2019-05-22T08:43:22.232Z,11.69
2019-05-22T08:45:50.800Z,11.71
2019-05-22T08:48:20.755Z,11.74
2019-05-22T08:50:50.103Z,11.75
2019-05-22T08:53:19.731Z,11.75
2019-05-22T08:55:49.077Z,11.75
2019-05-22T08:58:18.776Z,11.79
2019-05-22T09:00:48.107Z,11.81
2019-05-22T09:03:17.437Z,11.78
2019-05-22T09:05:46.535Z,11.82
2019-05-22T09:08:14.918Z,11.83
2019-05-22T09:10:43.488Z,11.82
2019-05-22T09:13:12.318Z,11.81
2019-05-22T09:15:41.129Z,11.82
2019-05-22T09:18:10.104Z,11.88
2019-05-22T09:20:48.761Z,11.62
2019-05-22T09:23:09.591Z,11.97
2019-05-22T09:25:38.504Z,12.01
2019-05-22T09:28:07.179Z,12.04
2019-05-22T09:30:36.991Z,12.06
2019-05-22T09:33:06.313Z,12.10
2019-05-22T09:35:34.943Z,12.11
2019-05-22T09:38:03.334Z,12.16
2019-05-22T09:40:32.784Z,12.14
2019-05-22T09:43:01.907Z,12.15
2019-05-22T09:45:30.764Z,12.16
2019-05-22T09:47:59.279Z,12.18
2019-05-22T09:50:27.767Z,12.20
2019-05-22T09:52:58.172Z,12.20
2019-05-22T09:55:26.571Z,12.24
2019-05-22T09:57:55.061Z,12.24
2019-05-22T10:00:23.583Z,12.21
2019-05-22T10:02:52.687Z,12.19
2019-05-22T10:05:21.825Z,12.14
2019-05-22T10:08:00.499Z,12.13
2019-05-22T10:10:21.875Z,12.18
2019-05-22T10:12:50.894Z,12.19
2019-05-22T10:15:20.496Z,12.21
2019-05-22T10:17:49.974Z,12.23
2019-05-22T10:20:20.075Z,12.29
2019-05-22T10:22:49.224Z,12.33
2019-05-22T10:25:18.134Z,12.38
2019-05-22T10:27:47.880Z,12.35
2019-05-22T10:30:22.541Z,12.35
2019-05-22T10:32:51.443Z,12.32
2019-05-22T10:35:23.331Z,12.30
2019-05-22T10:37:52.523Z,12.31
2019-05-22T10:40:21.405Z,12.32
2019-05-22T10:42:49.990Z,12.38
2019-05-22T10:45:18.702Z,12.40
2019-05-22T10:47:48.571Z,12.41
2019-05-22T10:50:18.577Z,12.42
2019-05-22T10:52:47.745Z,12.46
2019-05-22T10:55:16.776Z,12.53
2019-05-22T10:57:45.496Z,12.65
2019-05-22T11:00:15.964Z,12.75
2019-05-22T11:02:45.027Z,12.86
2019-05-22T11:05:14.214Z,12.94
2019-05-22T11:07:43.372Z,13.00
2019-05-22T11:10:13.641Z,13.05
2019-05-22T11:12:42.176Z,13.13
2019-05-22T11:15:11.177Z,13.19
2019-05-22T11:17:39.815Z,13.25
2019-05-22T11:20:11.016Z,13.31
2019-05-22T11:22:39.575Z,13.35
2019-05-22T11:25:09.878Z,13.36
2019-05-22T11:27:39.499Z,13.36
2019-05-22T11:30:10.931Z,13.44
2019-05-22T11:32:39.791Z,13.59
2019-05-22T11:35:10.225Z,13.76
2019-05-22T11:37:39.327Z,13.88
2019-05-22T11:40:09.964Z,14.00
2019-05-22T11:42:39.188Z,14.07
2019-05-22T11:45:11.274Z,14.11
2019-05-22T11:47:40.987Z,14.19
2019-05-22T11:50:11.929Z,14.28
2019-05-22T11:52:41.756Z,14.28
2019-05-22T11:55:12.359Z,14.27
2019-05-22T11:57:42.792Z,14.16
2019-05-22T12:00:12.204Z,14.09
2019-05-22T12:02:40.840Z,14.09
2019-05-22T12:05:10.341Z,14.07
2019-05-22T12:07:43.336Z,14.03
2019-05-22T12:10:14.203Z,14.04
2019-05-22T12:12:44.350Z,14.04
2019-05-22T12:15:13.967Z,14.01
2019-05-22T12:17:42.705Z,14.00
2019-05-22T12:20:14.085Z,13.96
2019-05-22T12:22:42.896Z,13.91
2019-05-22T12:25:13.036Z,13.93
2019-05-22T12:27:41.897Z,13.95
2019-05-22T12:30:11.730Z,13.97
2019-05-22T12:32:40.881Z,13.93
2019-05-22T12:35:11.712Z,13.88
2019-05-22T12:37:41.517Z,13.83
2019-05-22T12:40:13.151Z,13.75
2019-05-22T12:42:41.929Z,13.70
2019-05-22T12:45:12.869Z,13.62
2019-05-22T12:47:42.982Z,13.52
2019-05-22T12:50:15.152Z,13.48
2019-05-22T12:52:46.659Z,13.42
2019-05-22T12:55:15.393Z,13.39
2019-05-22T12:57:43.778Z,13.42
2019-05-22T13:00:12.509Z,13.38
2019-05-22T13:02:42.703Z,13.34
2019-05-22T13:05:14.428Z,13.33
2019-05-22T13:07:42.254Z,13.19
2019-05-22T13:10:10.806Z,13.35
2019-05-22T13:12:39.462Z,13.37
2019-05-22T13:15:10.598Z,13.45
2019-05-22T13:17:39.413Z,13.50
2019-05-22T13:20:08.246Z,13.59
2019-05-22T13:22:39.220Z,13.66
2019-05-22T13:25:09.340Z,13.68
2019-05-22T13:27:39.838Z,13.74
2019-05-22T13:30:10.935Z,13.83
2019-05-22T13:32:42.213Z,13.93
2019-05-22T13:35:13.528Z,14.05
2019-05-22T13:37:42.761Z,14.12
2019-05-22T13:40:27.075Z,14.12
2019-05-22T13:42:44.156Z,14.29
2019-05-22T13:45:28.729Z,14.36
2019-05-22T13:47:44.622Z,14.46
2019-05-22T13:50:15.469Z,14.54
2019-05-22T13:52:44.207Z,14.61
2019-05-22T13:55:14.398Z,14.64
2019-05-22T13:57:42.857Z,14.67
2019-05-22T14:00:15.936Z,14.74
2019-05-22T14:02:44.394Z,14.78
2019-05-22T14:05:13.985Z,14.82
2019-05-22T14:07:42.541Z,14.87
2019-05-22T14:10:11.343Z,14.88
2019-05-22T14:12:40.455Z,14.84
2019-05-22T14:15:09.410Z,14.79
2019-05-22T14:17:37.928Z,14.75
2019-05-22T14:20:07.959Z,14.65
2019-05-22T14:22:36.349Z,14.61
2019-05-22T14:25:08.204Z,14.51
2019-05-22T14:27:41.310Z,14.42
2019-05-22T14:30:08.248Z,14.37
2019-05-22T14:32:37.283Z,14.33
2019-05-22T14:35:07.009Z,14.29
2019-05-22T14:37:35.600Z,14.07
2019-05-22T14:40:07.263Z,14.21
2019-05-22T14:42:35.655Z,14.16
2019-05-22T14:45:05.387Z,14.08
2019-05-22T14:47:33.844Z,14.03
2019-05-22T14:50:03.201Z,14.02
2019-05-22T14:52:33.594Z,13.98
2019-05-22T14:55:02.945Z,13.95
2019-05-22T14:57:31.638Z,13.92
2019-05-22T15:00:00.715Z,13.89
2019-05-22T15:02:29.673Z,13.89
2019-05-22T15:04:58.779Z,13.90
2019-05-22T15:07:27.171Z,13.90
2019-05-22T15:09:55.923Z,13.88
2019-05-22T15:12:24.318Z,13.89
2019-05-22T15:14:52.713Z,13.91
2019-05-22T15:17:32.184Z,13.93
2019-05-22T15:19:52.114Z,13.93
2019-05-22T15:22:20.776Z,13.94
2019-05-22T15:24:49.780Z,13.98
2019-05-22T15:27:19.065Z,14.00
2019-05-22T15:29:47.532Z,14.06
2019-05-22T15:32:17.410Z,14.11
2019-05-22T15:34:46.345Z,14.13
2019-05-22T15:37:16.425Z,14.13
2019-05-22T15:39:45.156Z,14.11
2019-05-22T15:42:25.383Z,14.10
2019-05-22T15:44:55.024Z,14.10
2019-05-22T15:47:23.425Z,14.11
2019-05-22T15:49:51.816Z,14.12
2019-05-22T15:52:23.830Z,14.14
2019-05-22T15:54:53.065Z,14.18
2019-05-22T15:57:21.463Z,14.22
2019-05-22T15:59:50.036Z,14.27
2019-05-22T16:02:22.014Z,14.30
2019-05-22T16:04:51.466Z,14.35
2019-05-22T16:07:21.318Z,14.36
2019-05-22T16:09:50.847Z,14.37
2019-05-22T16:12:19.584Z,14.38
2019-05-22T16:14:49.955Z,14.37
2019-05-22T16:17:18.676Z,14.38
2019-05-22T16:19:48.071Z,14.38
2019-05-22T16:22:16.734Z,14.39
2019-05-22T16:24:46.094Z,14.41
2019-05-22T16:27:16.844Z,14.41
2019-05-22T16:29:45.941Z,14.42
2019-05-22T16:32:17.629Z,14.40
2019-05-22T16:34:46.191Z,14.39
2019-05-22T16:37:15.383Z,14.38
2019-05-22T16:39:44.041Z,14.41
2019-05-22T16:42:12.813Z,14.41
2019-05-22T16:44:42.217Z,14.42
2019-05-22T16:47:11.715Z,14.42
2019-05-22T16:49:40.748Z,14.43
2019-05-22T16:52:11.286Z,14.43
2019-05-22T16:54:40.788Z,14.43
2019-05-22T16:57:10.613Z,14.41
2019-05-22T16:59:40.826Z,14.38
2019-05-22T17:02:12.021Z,14.36
2019-05-22T17:04:40.936Z,14.33
2019-05-22T17:07:09.481Z,14.34
2019-05-22T17:09:39.396Z,14.29
2019-05-22T17:12:09.673Z,14.26
2019-05-22T17:14:38.054Z,14.22
2019-05-22T17:17:07.253Z,14.19
2019-05-22T17:19:35.785Z,14.19
2019-05-22T17:22:06.331Z,14.17
2019-05-22T17:24:35.445Z,14.16
2019-05-22T17:27:05.474Z,14.12
2019-05-22T17:29:34.216Z,14.12
2019-05-22T17:32:05.151Z,14.11
2019-05-22T17:34:34.495Z,14.08
2019-05-22T17:37:07.619Z,14.06
2019-05-22T17:39:38.125Z,14.04
2019-05-22T17:42:09.265Z,14.01
2019-05-22T17:44:39.963Z,14.02
2019-05-22T17:47:10.335Z,14.01
2019-05-22T17:49:39.512Z,14.01
2019-05-22T17:52:12.048Z,14.01
2019-05-22T17:54:39.399Z,13.98
2019-05-22T17:57:10.809Z,13.95
2019-05-22T17:59:39.597Z,13.92
2019-05-22T18:02:09.800Z,13.90
2019-05-22T18:04:38.356Z,13.88
2019-05-22T18:07:07.119Z,13.87
2019-05-22T18:09:36.061Z,13.87
2019-05-22T18:12:06.327Z,13.86
2019-05-22T18:14:36.021Z,13.83
2019-05-22T18:17:05.616Z,13.84
2019-05-22T18:19:34.589Z,13.84
2019-05-22T18:22:03.950Z,13.83
2019-05-22T18:24:32.341Z,13.82
2019-05-22T18:27:00.996Z,13.81
2019-05-22T18:29:29.501Z,13.79
2019-05-22T18:31:58.081Z,13.75
2019-05-22T18:34:26.538Z,13.74
2019-05-22T18:36:54.984Z,13.72
2019-05-22T18:39:24.066Z,13.68
2019-05-22T18:41:52.529Z,13.66
2019-05-22T18:44:21.144Z,13.59
2019-05-22T18:46:50.436Z,13.58
2019-05-22T18:49:18.889Z,13.58
2019-05-22T18:51:47.415Z,13.56
2019-05-22T18:54:18.818Z,13.55
2019-05-22T18:56:45.924Z,13.55
2019-05-22T18:59:14.318Z,13.53
2019-05-22T19:01:42.707Z,13.52
2019-05-22T19:04:11.377Z,13.50
2019-05-22T19:06:41.963Z,13.49
2019-05-22T19:09:10.427Z,13.45
2019-05-22T19:11:39.264Z,13.41
2019-05-22T19:14:08.336Z,13.38
2019-05-22T19:16:36.977Z,13.36
2019-05-22T19:19:07.486Z,13.33
2019-05-22T19:21:35.932Z,13.30
2019-05-22T19:24:04.618Z,13.29
2019-05-22T19:26:33.160Z,13.29
2019-05-22T19:29:01.644Z,13.28
2019-05-22T19:31:30.099Z,13.26
2019-05-22T19:34:04.552Z,13.23
2019-05-22T19:36:32.957Z,13.21
2019-05-22T19:39:01.541Z,13.19
2019-05-22T19:41:30.674Z,13.18
2019-05-22T19:43:59.154Z,12.97
2019-05-22T19:46:27.624Z,13.12
2019-05-22T19:48:56.025Z,13.09
2019-05-22T19:51:24.742Z,13.07
2019-05-22T19:53:53.204Z,13.00
2019-05-22T19:56:23.756Z,12.96
2019-05-22T19:58:52.597Z,12.95
2019-05-22T20:01:21.458Z,12.94
2019-05-22T20:03:50.020Z,12.95
2019-05-22T20:06:19.013Z,12.93
2019-05-22T20:08:47.475Z,12.75
2019-05-22T20:11:16.530Z,12.73
2019-05-22T20:13:44.911Z,12.87
2019-05-22T20:16:13.693Z,12.87
2019-05-22T20:18:42.755Z,12.85
2019-05-22T20:21:11.483Z,12.86
2019-05-22T20:23:40.209Z,12.85
2019-05-22T20:26:08.676Z,12.81
2019-05-22T20:28:38.883Z,12.76
2019-05-22T20:31:08.049Z,12.74
2019-05-22T20:33:36.512Z,12.71
2019-05-22T20:36:05.312Z,12.70
2019-05-22T20:38:33.941Z,12.64
2019-05-22T20:41:02.331Z,12.59
2019-05-22T20:43:31.740Z,12.54
2019-05-22T20:46:01.217Z,12.48
2019-05-22T20:48:30.076Z,12.49
2019-05-22T20:50:59.683Z,12.48
2019-05-22T20:53:30.098Z,12.47
2019-05-22T20:55:59.743Z,12.43
2019-05-22T20:58:30.351Z,11.92
2019-05-22T21:00:59.655Z,12.36
2019-05-22T21:03:29.352Z,12.29
2019-05-22T21:06:00.995Z,12.23
2019-05-22T21:08:30.635Z,12.20
2019-05-22T21:11:00.571Z,12.18
2019-05-22T21:13:30.198Z,12.13
2019-05-22T21:15:58.687Z,12.11
2019-05-22T21:18:29.934Z,12.10
2019-05-22T21:20:58.329Z,12.07
2019-05-22T21:23:28.782Z,12.05
2019-05-22T21:25:57.256Z,12.03
2019-05-22T21:28:25.985Z,12.00
2019-05-22T21:30:55.088Z,11.98
2019-05-22T21:33:24.026Z,11.96
2019-05-22T21:35:52.654Z,11.96
2019-05-22T21:38:22.585Z,11.78
2019-05-22T21:40:51.148Z,11.90
2019-05-22T21:43:19.822Z,11.87
2019-05-22T21:45:49.330Z,11.84
2019-05-22T21:48:18.361Z,11.83
2019-05-22T21:50:46.822Z,11.82
2019-05-22T21:53:15.350Z,11.78
2019-05-22T21:55:46.224Z,11.76
2019-05-22T21:58:15.347Z,11.76
2019-05-22T22:00:58.146Z,11.74
2019-05-22T22:03:46.527Z,11.72
2019-05-22T22:06:15.684Z,11.71
2019-05-22T22:08:44.613Z,11.71
2019-05-22T22:11:14.245Z,11.73
2019-05-22T22:13:43.373Z,11.73
2019-05-22T22:16:11.841Z,11.72
2019-05-22T22:18:41.268Z,11.72
2019-05-22T22:21:11.190Z,11.70
2019-05-22T22:23:39.699Z,11.68
2019-05-22T22:26:24.262Z,11.65
2019-05-22T22:28:39.851Z,11.63
2019-05-22T22:31:10.359Z,11.60
2019-05-22T22:33:40.275Z,11.58
2019-05-22T22:36:09.769Z,11.56
2019-05-22T22:38:39.595Z,11.54
2019-05-22T22:41:09.909Z,11.55
2019-05-22T22:43:40.800Z,11.53
2019-05-22T22:46:19.693Z,11.48
2019-05-22T22:48:51.572Z,11.42
2019-05-22T22:51:20.160Z,11.38
2019-05-22T22:53:49.072Z,11.35
2019-05-22T22:56:18.216Z,11.30
2019-05-22T22:58:48.517Z,11.26
2019-05-22T23:01:20.928Z,11.22
2019-05-22T23:03:51.800Z,11.17
2019-05-22T23:06:20.550Z,11.16
2019-05-22T23:08:50.177Z,11.15
2019-05-22T23:11:19.104Z,11.15
2019-05-22T23:13:47.925Z,11.14
2019-05-22T23:16:17.625Z,11.11
2019-05-22T23:19:01.115Z,11.05
2019-05-22T23:21:30.216Z,11.00
2019-05-22T23:23:58.586Z,10.98
2019-05-22T23:26:27.383Z,10.95
2019-05-22T23:28:55.766Z,10.90
2019-05-22T23:31:24.222Z,10.87
2019-05-22T23:33:53.285Z,10.83
2019-05-22T23:36:22.885Z,10.81
2019-05-22T23:38:52.275Z,10.76
2019-05-22T23:41:23.252Z,10.78
2019-05-22T23:43:52.194Z,10.77
2019-05-22T23:46:22.544Z,10.76
2019-05-22T23:48:51.104Z,10.73
2019-05-22T23:51:20.655Z,10.65
2019-05-22T23:53:50.689Z,10.63
2019-05-22T23:56:20.079Z,10.61
2019-05-22T23:58:52.948Z,10.57
